sensor_id;sensor_type;location;lat;lon;timestamp;pressure;altitude;pressure_sealevel;temperature;humidity
14041;BME280;7095;51.388;6.196;2023-05-01T00:00:56;53761.53;;;-145.32;100.00
14041;BME280;7095;51.388;6.196;2023-05-01T00:03:26;53761.53;;;-145.32;100.00
14041;BME280;7095;51.388;6.196;2023-05-01T00:05:58;53781.41;;;-145.32;100.00
14041;BME280;7095;51.388;6.196;2023-05-01T00:08:27;53777.44;;;-145.32;100.00
14041;BME280;7095;51.388;6.196;2023-05-01T00:10:56;53771.47;;;-145.32;100.00
14041;BME280;7095;51.388;6.196;2023-05-01T00:13:25;53783.41;;;-145.32;100.00
14041;BME280;7095;51.388;6.196;2023-05-01T00:15:53;53797.31;;;-145.32;100.00
14041;BME280;7095;51.388;6.196;2023-05-01T00:18:22;53801.31;;;-145.32;100.00
14041;BME280;7095;51.388;6.196;2023-05-01T00:20:52;53807.25;;;-145.32;100.00
14041;BME280;7095;51.388;6.196;2023-05-01T00:23:21;53809.25;;;-145.32;100.00
14041;BME280;7095;51.388;6.196;2023-05-01T00:25:50;53797.31;;;-145.32;100.00
14041;BME280;7095;51.388;6.196;2023-05-01T00:28:18;53825.16;;;-145.32;100.00
14041;BME280;7095;51.388;6.196;2023-05-01T00:30:47;53845.03;;;-145.32;100.00
14041;BME280;7095;51.388;6.196;2023-05-01T00:33:16;53825.16;;;-145.32;100.00
14041;BME280;7095;51.388;6.196;2023-05-01T00:35:45;53829.13;;;-145.32;100.00
14041;BME280;7095;51.388;6.196;2023-05-01T00:38:15;53868.91;;;-145.32;100.00
14041;BME280;7095;51.388;6.196;2023-05-01T00:40:45;53860.94;;;-145.32;100.00
14041;BME280;7095;51.388;6.196;2023-05-01T00:43:14;53847.03;;;-145.32;100.00
14041;BME280;7095;51.388;6.196;2023-05-01T00:45:43;53849.03;;;-145.32;100.00
14041;BME280;7095;51.388;6.196;2023-05-01T00:48:13;53866.91;;;-145.32;100.00
14041;BME280;7095;51.388;6.196;2023-05-01T00:50:43;53880.84;;;-145.32;100.00
14041;BME280;7095;51.388;6.196;2023-05-01T00:53:15;53876.84;;;-145.32;100.00
14041;BME280;7095;51.388;6.196;2023-05-01T00:55:44;53886.78;;;-145.32;100.00
14041;BME280;7095;51.388;6.196;2023-05-01T00:58:15;53896.75;;;-145.32;100.00
14041;BME280;7095;51.388;6.196;2023-05-01T01:00:44;53876.84;;;-145.32;100.00
14041;BME280;7095;51.388;6.196;2023-05-01T01:03:13;53906.69;;;-145.32;100.00
14041;BME280;7095;51.388;6.196;2023-05-01T01:05:47;53900.72;;;-145.32;100.00
14041;BME280;7095;51.388;6.196;2023-05-01T01:08:24;53926.56;;;-145.32;100.00
14041;BME280;7095;51.388;6.196;2023-05-01T01:11:02;53902.69;;;-145.32;100.00
14041;BME280;7095;51.388;6.196;2023-05-01T01:13:39;53928.56;;;-145.32;100.00
14041;BME280;7095;51.388;6.196;2023-05-01T01:16:19;53940.47;;;-145.32;100.00
14041;BME280;7095;51.388;6.196;2023-05-01T01:18:54;53974.28;;;-145.32;100.00
14041;BME280;7095;51.388;6.196;2023-05-01T01:21:28;53968.31;;;-145.32;100.00
14041;BME280;7095;51.388;6.196;2023-05-01T01:24:15;53956.38;;;-145.32;100.00
14041;BME280;7095;51.388;6.196;2023-05-01T01:29:56;53968.31;;;-145.32;100.00
14041;BME280;7095;51.388;6.196;2023-05-01T01:33:07;54024.00;;;-145.32;100.00
14041;BME280;7095;51.388;6.196;2023-05-01T01:35:54;54025.97;;;-145.32;100.00
14041;BME280;7095;51.388;6.196;2023-05-01T01:38:31;54035.91;;;-145.32;100.00
14041;BME280;7095;51.388;6.196;2023-05-01T01:41:09;54059.78;;;-145.32;100.00
14041;BME280;7095;51.388;6.196;2023-05-01T01:43:43;54081.66;;;-145.32;100.00
14041;BME280;7095;51.388;6.196;2023-05-01T01:46:14;54099.56;;;-145.32;100.00
14041;BME280;7095;51.388;6.196;2023-05-01T01:48:48;54139.31;;;-145.32;100.00
14041;BME280;7095;51.388;6.196;2023-05-01T01:51:20;54187.03;;;-145.32;100.00
14041;BME280;7095;51.388;6.196;2023-05-01T01:53:52;54193.00;;;-145.32;100.00
14041;BME280;7095;51.388;6.196;2023-05-01T01:56:24;54220.84;;;-145.32;100.00
14041;BME280;7095;51.388;6.196;2023-05-01T01:58:55;54246.69;;;-145.32;100.00
14041;BME280;7095;51.388;6.196;2023-05-01T02:01:25;54258.63;;;-145.32;100.00
14041;BME280;7095;51.388;6.196;2023-05-01T02:03:55;54316.28;;;-145.32;100.00
14041;BME280;7095;51.388;6.196;2023-05-01T02:06:28;54340.16;;;-145.32;100.00
14041;BME280;7095;51.388;6.196;2023-05-01T02:08:58;54417.72;;;-145.32;100.00
14041;BME280;7095;51.388;6.196;2023-05-01T02:11:30;54409.75;;;-145.32;100.00
14041;BME280;7095;51.388;6.196;2023-05-01T02:14:00;54465.44;;;-145.32;100.00
14041;BME280;7095;51.388;6.196;2023-05-01T02:16:31;54505.22;;;-145.32;100.00
14041;BME280;7095;51.388;6.196;2023-05-01T02:19:01;54548.97;;;-145.32;100.00
14041;BME280;7095;51.388;6.196;2023-05-01T02:21:34;54634.47;;;-145.32;100.00
14041;BME280;7095;51.388;6.196;2023-05-01T02:24:05;54612.59;;;-145.32;100.00
14041;BME280;7095;51.388;6.196;2023-05-01T02:26:38;54628.50;;;-145.32;100.00
14041;BME280;7095;51.388;6.196;2023-05-01T02:29:09;54618.56;;;-145.32;100.00
14041;BME280;7095;51.388;6.196;2023-05-01T02:31:39;54642.44;;;-145.32;100.00
14041;BME280;7095;51.388;6.196;2023-05-01T02:34:09;54664.31;;;-145.32;100.00
14041;BME280;7095;51.388;6.196;2023-05-01T02:36:39;54654.38;;;-145.32;100.00
14041;BME280;7095;51.388;6.196;2023-05-01T02:39:09;54692.16;;;-145.32;100.00
14041;BME280;7095;51.388;6.196;2023-05-01T02:41:39;54662.31;;;-145.32;100.00
14041;BME280;7095;51.388;6.196;2023-05-01T02:44:10;54670.28;;;-145.32;100.00
14041;BME280;7095;51.388;6.196;2023-05-01T02:46:41;54632.50;;;-145.32;100.00
14041;BME280;7095;51.388;6.196;2023-05-01T02:49:13;54654.38;;;-145.32;100.00
14041;BME280;7095;51.388;6.196;2023-05-01T02:51:46;54668.28;;;-145.32;100.00
14041;BME280;7095;51.388;6.196;2023-05-01T02:54:16;54656.34;;;-145.32;100.00
14041;BME280;7095;51.388;6.196;2023-05-01T02:56:45;54664.31;;;-145.32;100.00
14041;BME280;7095;51.388;6.196;2023-05-01T02:59:14;54652.38;;;-145.32;100.00
14041;BME280;7095;51.388;6.196;2023-05-01T03:01:42;54696.13;;;-145.32;100.00
14041;BME280;7095;51.388;6.196;2023-05-01T03:04:11;54682.22;;;-145.32;100.00
14041;BME280;7095;51.388;6.196;2023-05-01T03:06:40;54723.97;;;-145.32;100.00
14041;BME280;7095;51.388;6.196;2023-05-01T03:09:12;54759.78;;;-145.32;100.00
14041;BME280;7095;51.388;6.196;2023-05-01T03:11:40;54725.97;;;-145.32;100.00
14041;BME280;7095;51.388;6.196;2023-05-01T03:14:09;54731.94;;;-145.32;100.00
14041;BME280;7095;51.388;6.196;2023-05-01T03:16:38;54664.31;;;-145.32;100.00
14041;BME280;7095;51.388;6.196;2023-05-01T03:19:07;54614.59;;;-145.32;100.00
14041;BME280;7095;51.388;6.196;2023-05-01T03:21:37;54616.56;;;-145.32;100.00
14041;BME280;7095;51.388;6.196;2023-05-01T03:24:05;54584.75;;;-145.32;100.00
14041;BME280;7095;51.388;6.196;2023-05-01T03:26:35;54560.91;;;-145.32;100.00
14041;BME280;7095;51.388;6.196;2023-05-01T03:29:04;54584.75;;;-145.32;100.00
14041;BME280;7095;51.388;6.196;2023-05-01T03:31:33;54608.63;;;-145.32;100.00
14041;BME280;7095;51.388;6.196;2023-05-01T03:34:02;54620.56;;;-145.32;100.00
14041;BME280;7095;51.388;6.196;2023-05-01T03:36:31;54636.47;;;-145.32;100.00
14041;BME280;7095;51.388;6.196;2023-05-01T03:39:00;54600.66;;;-145.32;100.00
14041;BME280;7095;51.388;6.196;2023-05-01T03:41:50;54727.94;;;-145.32;100.00
14041;BME280;7095;51.388;6.196;2023-05-01T03:44:23;54725.97;;;-145.32;100.00
14041;BME280;7095;51.388;6.196;2023-05-01T03:46:52;54692.16;;;-145.32;100.00
14041;BME280;7095;51.388;6.196;2023-05-01T03:49:25;54757.78;;;-145.32;100.00
14041;BME280;7095;51.388;6.196;2023-05-01T03:51:54;54823.41;;;-145.32;100.00
14041;BME280;7095;51.388;6.196;2023-05-01T03:54:23;54795.56;;;-145.32;100.00
14041;BME280;7095;51.388;6.196;2023-05-01T03:57:03;54783.63;;;-145.32;100.00
14041;BME280;7095;51.388;6.196;2023-05-01T03:59:32;54791.59;;;-145.32;100.00
14041;BME280;7095;51.388;6.196;2023-05-01T04:02:01;54871.16;;;-145.32;100.00
14041;BME280;7095;51.388;6.196;2023-05-01T04:04:34;54948.72;;;-145.32;100.00
14041;BME280;7095;51.388;6.196;2023-05-01T04:07:03;55006.38;;;-145.32;100.00
14041;BME280;7095;51.388;6.196;2023-05-01T04:09:31;55020.31;;;-145.32;100.00
14041;BME280;7095;51.388;6.196;2023-05-01T04:12:00;55153.56;;;-145.32;100.00
14041;BME280;7095;51.388;6.196;2023-05-01T04:14:31;55169.50;;;-145.32;100.00
14041;BME280;7095;51.388;6.196;2023-05-01T04:17:00;55209.25;;;-145.32;100.00
14041;BME280;7095;51.388;6.196;2023-05-01T04:19:32;55360.44;;;-145.32;100.00
14041;BME280;7095;51.388;6.196;2023-05-01T04:22:01;55348.50;;;-145.32;100.00
14041;BME280;7095;51.388;6.196;2023-05-01T04:24:33;55380.34;;;-145.32;100.00
14041;BME280;7095;51.388;6.196;2023-05-01T04:27:02;55436.03;;;-145.32;100.00
14041;BME280;7095;51.388;6.196;2023-05-01T04:29:33;55503.66;;;-145.32;100.00
14041;BME280;7095;51.388;6.196;2023-05-01T04:32:02;55664.78;;;-145.32;100.00
14041;BME280;7095;51.388;6.196;2023-05-01T04:34:32;55790.13;;;-145.32;100.00
14041;BME280;7095;51.388;6.196;2023-05-01T04:37:01;55935.34;;;-145.32;100.00
14041;BME280;7095;51.388;6.196;2023-05-01T04:39:29;55917.44;;;-145.32;100.00
14041;BME280;7095;51.388;6.196;2023-05-01T04:41:58;56032.84;;;-145.32;100.00
14041;BME280;7095;51.388;6.196;2023-05-01T04:44:29;56116.41;;;-145.32;100.00
14041;BME280;7095;51.388;6.196;2023-05-01T04:47:02;56398.94;;;-145.32;100.00
14041;BME280;7095;51.388;6.196;2023-05-01T04:49:31;56341.22;;;-145.32;100.00
14041;BME280;7095;51.388;6.196;2023-05-01T04:52:00;56494.44;;;-145.32;100.00
14041;BME280;7095;51.388;6.196;2023-05-01T04:54:40;56747.16;;;-145.32;100.00
14041;BME280;7095;51.388;6.196;2023-05-01T04:57:09;56892.44;;;-145.32;100.00
14041;BME280;7095;51.388;6.196;2023-05-01T04:59:39;56884.47;;;-145.32;100.00
14041;BME280;7095;51.388;6.196;2023-05-01T05:02:10;56995.91;;;-145.32;100.00
14041;BME280;7095;51.388;6.196;2023-05-01T05:04:38;57457.66;;;-145.32;100.00
14041;BME280;7095;51.388;6.196;2023-05-01T05:07:07;57724.38;;;-145.32;100.00
14041;BME280;7095;51.388;6.196;2023-05-01T05:09:59;57764.19;;;-145.32;100.00
14041;BME280;7095;51.388;6.196;2023-05-01T05:12:28;57636.78;;;-145.32;100.00
14041;BME280;7095;51.388;6.196;2023-05-01T05:14:57;57879.66;;;-145.32;100.00
14041;BME280;7095;51.388;6.196;2023-05-01T05:17:27;58249.91;;;-145.32;100.00
14041;BME280;7095;51.388;6.196;2023-05-01T05:19:55;58701.88;;;-145.32;100.00
14041;BME280;7095;51.388;6.196;2023-05-01T05:22:25;58992.59;;;-145.32;100.00
14041;BME280;7095;51.388;6.196;2023-05-01T05:25:15;59426.72;;;-145.32;100.00
14041;BME280;7095;51.388;6.196;2023-05-01T05:27:44;59265.41;;;-145.32;100.00
14041;BME280;7095;51.388;6.196;2023-05-01T05:30:13;59548.19;;;-145.32;100.00
14041;BME280;7095;51.388;6.196;2023-05-01T05:32:45;59486.47;;;-145.32;100.00
14041;BME280;7095;51.388;6.196;2023-05-01T05:35:14;59697.56;;;-145.32;100.00
14041;BME280;7095;51.388;6.196;2023-05-01T05:37:43;59442.66;;;-145.32;100.00
14041;BME280;7095;51.388;6.196;2023-05-01T05:40:12;59203.66;;;-145.32;100.00
14041;BME280;7095;51.388;6.196;2023-05-01T05:42:52;59157.88;;;-145.32;100.00
14041;BME280;7095;51.388;6.196;2023-05-01T05:45:20;59094.16;;;-145.32;100.00
14041;BME280;7095;51.388;6.196;2023-05-01T05:47:51;59263.41;;;-145.32;100.00
14041;BME280;7095;51.388;6.196;2023-05-01T05:50:19;59468.53;;;-145.32;100.00
14041;BME280;7095;51.388;6.196;2023-05-01T05:52:48;59482.47;;;-145.32;100.00
14041;BME280;7095;51.388;6.196;2023-05-01T05:55:17;59082.19;;;-145.32;100.00
14041;BME280;7095;51.388;6.196;2023-05-01T05:58:04;58640.16;;;-145.32;100.00
14041;BME280;7095;51.388;6.196;2023-05-01T06:00:34;59368.97;;;-145.32;100.00
14041;BME280;7095;51.388;6.196;2023-05-01T06:03:06;59695.59;;;-145.32;100.00
14041;BME280;7095;51.388;6.196;2023-05-01T06:05:35;59022.47;;;-145.32;100.00
14041;BME280;7095;51.388;6.196;2023-05-01T06:08:04;59145.91;;;-145.32;100.00
14041;BME280;7095;51.388;6.196;2023-05-01T06:10:33;59147.91;;;-145.32;100.00
14041;BME280;7095;51.388;6.196;2023-05-01T06:13:02;59203.66;;;-145.32;100.00
14041;BME280;7095;51.388;6.196;2023-05-01T06:15:41;58265.84;;;-145.32;100.00
14041;BME280;7095;51.388;6.196;2023-05-01T06:18:12;58339.50;;;-145.32;100.00
14041;BME280;7095;51.388;6.196;2023-05-01T06:20:41;57937.38;;;-145.32;100.00
14041;BME280;7095;51.388;6.196;2023-05-01T06:23:10;57545.22;;;-145.32;100.00
14041;BME280;7095;51.388;6.196;2023-05-01T06:25:47;57151.16;;;-145.32;100.00
14041;BME280;7095;51.388;6.196;2023-05-01T06:28:15;56741.19;;;-145.32;100.00
14041;BME280;7095;51.388;6.196;2023-05-01T06:30:45;56217.88;;;-145.32;100.00
14041;BME280;7095;51.388;6.196;2023-05-01T06:33:17;55817.97;;;-145.32;100.00
14041;BME280;7095;51.388;6.196;2023-05-01T06:35:56;55481.78;;;-145.32;100.00
14041;BME280;7095;51.388;6.196;2023-05-01T06:38:25;55203.31;;;-145.32;100.00
14041;BME280;7095;51.388;6.196;2023-05-01T06:40:54;55177.44;;;-145.32;100.00
14041;BME280;7095;51.388;6.196;2023-05-01T06:43:23;54930.81;;;-145.32;100.00
14041;BME280;7095;51.388;6.196;2023-05-01T06:45:54;54968.59;;;-145.32;100.00
14041;BME280;7095;51.388;6.196;2023-05-01T06:48:24;54672.25;;;-145.32;100.00
14041;BME280;7095;51.388;6.196;2023-05-01T06:50:52;54592.72;;;-145.32;100.00
14041;BME280;7095;51.388;6.196;2023-05-01T06:53:22;54477.38;;;-145.32;100.00
14041;BME280;7095;51.388;6.196;2023-05-01T06:55:51;54495.28;;;-145.32;100.00
14041;BME280;7095;51.388;6.196;2023-05-01T06:58:20;54308.34;;;-145.32;100.00
14041;BME280;7095;51.388;6.196;2023-05-01T07:00:52;54254.66;;;-145.32;100.00
14041;BME280;7095;51.388;6.196;2023-05-01T07:03:20;54198.97;;;-145.32;100.00
14041;BME280;7095;51.388;6.196;2023-05-01T07:05:50;54101.53;;;-145.32;100.00
14041;BME280;7095;51.388;6.196;2023-05-01T07:08:19;54059.78;;;-145.32;100.00
14041;BME280;7095;51.388;6.196;2023-05-01T07:10:48;54000.13;;;-145.32;100.00
14041;BME280;7095;51.388;6.196;2023-05-01T07:13:17;53964.34;;;-145.32;100.00
14041;BME280;7095;51.388;6.196;2023-05-01T07:15:45;53896.75;;;-145.32;100.00
14041;BME280;7095;51.388;6.196;2023-05-01T07:18:15;53936.50;;;-145.32;100.00
14041;BME280;7095;51.388;6.196;2023-05-01T07:20:44;53872.88;;;-145.32;100.00
14041;BME280;7095;51.388;6.196;2023-05-01T07:23:14;53841.06;;;-145.32;100.00
14041;BME280;7095;51.388;6.196;2023-05-01T07:25:43;53821.19;;;-145.32;100.00
14041;BME280;7095;51.388;6.196;2023-05-01T07:28:12;53777.44;;;-145.32;100.00
14041;BME280;7095;51.388;6.196;2023-05-01T07:30:41;53791.34;;;-145.32;100.00
14041;BME280;7095;51.388;6.196;2023-05-01T07:33:10;53755.56;;;-145.32;100.00
14041;BME280;7095;51.388;6.196;2023-05-01T07:35:39;53739.66;;;-145.32;100.00
14041;BME280;7095;51.388;6.196;2023-05-01T07:38:09;53670.09;;;-145.32;100.00
14041;BME280;7095;51.388;6.196;2023-05-01T07:40:39;53687.97;;;-145.32;100.00
14041;BME280;7095;51.388;6.196;2023-05-01T07:43:08;53640.25;;;-145.32;100.00
14041;BME280;7095;51.388;6.196;2023-05-01T07:45:38;53654.19;;;-145.32;100.00
14041;BME280;7095;51.388;6.196;2023-05-01T07:48:09;53608.44;;;-145.32;100.00
14041;BME280;7095;51.388;6.196;2023-05-01T07:50:38;53638.28;;;-145.32;100.00
14041;BME280;7095;51.388;6.196;2023-05-01T07:53:06;53640.25;;;-145.32;100.00
14041;BME280;7095;51.388;6.196;2023-05-01T07:55:35;53626.34;;;-145.32;100.00
14041;BME280;7095;51.388;6.196;2023-05-01T07:58:06;53578.63;;;-145.32;100.00
14041;BME280;7095;51.388;6.196;2023-05-01T08:00:35;53596.53;;;-145.32;100.00
14041;BME280;7095;51.388;6.196;2023-05-01T08:03:04;53572.66;;;-145.32;100.00
14041;BME280;7095;51.388;6.196;2023-05-01T08:05:33;53558.75;;;-145.32;100.00
14041;BME280;7095;51.388;6.196;2023-05-01T08:08:01;53594.53;;;-145.32;100.00
14041;BME280;7095;51.388;6.196;2023-05-01T08:10:30;53578.63;;;-145.32;100.00
14041;BME280;7095;51.388;6.196;2023-05-01T08:12:59;53568.69;;;-145.32;100.00
14041;BME280;7095;51.388;6.196;2023-05-01T08:15:29;53560.72;;;-145.32;100.00
14041;BME280;7095;51.388;6.196;2023-05-01T08:17:59;53564.72;;;-145.32;100.00
14041;BME280;7095;51.388;6.196;2023-05-01T08:20:27;53564.72;;;-145.32;100.00
14041;BME280;7095;51.388;6.196;2023-05-01T08:22:56;53540.84;;;-145.32;100.00
14041;BME280;7095;51.388;6.196;2023-05-01T08:25:24;53515.00;;;-145.32;100.00
14041;BME280;7095;51.388;6.196;2023-05-01T08:27:53;53495.13;;;-145.32;100.00
14041;BME280;7095;51.388;6.196;2023-05-01T08:30:23;53495.13;;;-145.32;100.00
14041;BME280;7095;51.388;6.196;2023-05-01T08:32:54;53495.13;;;-145.32;100.00
14041;BME280;7095;51.388;6.196;2023-05-01T08:35:22;53499.09;;;-145.32;100.00
14041;BME280;7095;51.388;6.196;2023-05-01T08:37:51;53501.09;;;-145.32;100.00
14041;BME280;7095;51.388;6.196;2023-05-01T08:40:20;53489.16;;;-145.32;100.00
14041;BME280;7095;51.388;6.196;2023-05-01T08:42:50;53487.19;;;-145.32;100.00
14041;BME280;7095;51.388;6.196;2023-05-01T08:45:21;53511.03;;;-145.32;100.00
14041;BME280;7095;51.388;6.196;2023-05-01T08:47:51;53491.16;;;-145.32;100.00
14041;BME280;7095;51.388;6.196;2023-05-01T08:50:23;53459.34;;;-145.32;95.89
14041;BME280;7095;51.388;6.196;2023-05-01T08:52:53;53475.25;;;-145.32;97.47
14041;BME280;7095;51.388;6.196;2023-05-01T08:55:24;53467.28;;;-145.32;96.40
14041;BME280;7095;51.388;6.196;2023-05-01T08:57:54;53467.28;;;-145.32;94.76
14041;BME280;7095;51.388;6.196;2023-05-01T09:00:25;53463.31;;;-145.32;93.65
14041;BME280;7095;51.388;6.196;2023-05-01T09:02:59;53433.50;;;-145.32;93.37
14041;BME280;7095;51.388;6.196;2023-05-01T09:05:32;53475.25;;;-145.32;86.83
14041;BME280;7095;51.388;6.196;2023-05-01T09:08:00;53467.28;;;-145.32;91.27
14041;BME280;7095;51.388;6.196;2023-05-01T09:10:29;53453.38;;;-145.32;89.32
14041;BME280;7095;51.388;6.196;2023-05-01T09:13:00;53439.47;;;-145.32;87.07
14041;BME280;7095;51.388;6.196;2023-05-01T09:15:29;53457.34;;;-145.32;87.19
14041;BME280;7095;51.388;6.196;2023-05-01T09:17:59;53459.34;;;-145.32;86.34
14041;BME280;7095;51.388;6.196;2023-05-01T09:20:32;53429.53;;;-145.32;85.13
14041;BME280;7095;51.388;6.196;2023-05-01T09:23:03;53423.56;;;-145.32;83.96
14041;BME280;7095;51.388;6.196;2023-05-01T09:25:32;53397.72;;;-145.32;81.71
14041;BME280;7095;51.388;6.196;2023-05-01T09:28:03;53423.56;;;-145.32;79.23
14041;BME280;7095;51.388;6.196;2023-05-01T09:30:35;53403.69;;;-145.32;78.61
14041;BME280;7095;51.388;6.196;2023-05-01T09:33:05;53447.41;;;-145.32;77.70
14041;BME280;7095;51.388;6.196;2023-05-01T09:35:52;53433.50;;;-145.32;74.33
14041;BME280;7095;51.388;6.196;2023-05-01T09:38:23;53401.69;;;-145.32;81.68
14041;BME280;7095;51.388;6.196;2023-05-01T09:40:55;53407.66;;;-145.32;82.24
14041;BME280;7095;51.388;6.196;2023-05-01T09:43:25;53439.47;;;-145.32;81.25
14041;BME280;7095;51.388;6.196;2023-05-01T09:46:02;53393.75;;;-145.32;73.24
14041;BME280;7095;51.388;6.196;2023-05-01T09:48:33;53417.59;;;-145.32;79.77
14041;BME280;7095;51.388;6.196;2023-05-01T09:51:24;53437.47;;;-145.32;75.14
14041;BME280;7095;51.388;6.196;2023-05-01T09:53:54;53435.47;;;-145.32;79.63
14041;BME280;7095;51.388;6.196;2023-05-01T09:56:25;53419.59;;;-145.32;80.51
14041;BME280;7095;51.388;6.196;2023-05-01T09:58:55;53431.50;;;-145.32;73.80
14041;BME280;7095;51.388;6.196;2023-05-01T10:01:37;53401.69;;;-145.32;64.10
14041;BME280;7095;51.388;6.196;2023-05-01T10:04:06;53403.69;;;-145.32;68.52
14041;BME280;7095;51.388;6.196;2023-05-01T10:06:38;53407.66;;;-145.32;66.41
14041;BME280;7095;51.388;6.196;2023-05-01T10:09:07;53383.78;;;-145.32;67.02
14041;BME280;7095;51.388;6.196;2023-05-01T10:11:47;53365.91;;;-145.32;65.28
14041;BME280;7095;51.388;6.196;2023-05-01T10:14:16;53367.91;;;-145.32;68.06
14041;BME280;7095;51.388;6.196;2023-05-01T10:16:46;53359.94;;;-145.32;67.45
14041;BME280;7095;51.388;6.196;2023-05-01T10:19:16;53395.72;;;-145.32;66.99
14041;BME280;7095;51.388;6.196;2023-05-01T10:21:46;53383.78;;;-145.32;64.81
14041;BME280;7095;51.388;6.196;2023-05-01T10:24:15;53391.75;;;-145.32;65.90
14041;BME280;7095;51.388;6.196;2023-05-01T10:26:47;53367.91;;;-145.32;65.07
14041;BME280;7095;51.388;6.196;2023-05-01T10:29:17;53375.84;;;-145.32;67.16
14041;BME280;7095;51.388;6.196;2023-05-01T10:31:49;53397.72;;;-145.32;66.66
14041;BME280;7095;51.388;6.196;2023-05-01T10:34:18;53328.13;;;-145.32;67.86
14041;BME280;7095;51.388;6.196;2023-05-01T10:36:55;53405.66;;;-145.32;69.77
14041;BME280;7095;51.388;6.196;2023-05-01T10:39:29;53355.97;;;-145.32;68.80
14041;BME280;7095;51.388;6.196;2023-05-01T10:42:02;53355.97;;;-145.32;67.18
14041;BME280;7095;51.388;6.196;2023-05-01T10:44:31;53352.00;;;-145.32;68.81
14041;BME280;7095;51.388;6.196;2023-05-01T10:50:08;53395.72;;;-145.32;67.95
14041;BME280;7095;51.388;6.196;2023-05-01T10:55:46;53383.78;;;-145.32;68.91
14041;BME280;7095;51.388;6.196;2023-05-01T11:01:31;53359.94;;;-145.32;66.75
14041;BME280;7095;51.388;6.196;2023-05-01T11:04:02;53352.00;;;-145.32;66.64
14041;BME280;7095;51.388;6.196;2023-05-01T11:06:31;53353.97;;;-145.32;68.58
14041;BME280;7095;51.388;6.196;2023-05-01T11:09:01;53367.91;;;-145.32;67.72
14041;BME280;7095;51.388;6.196;2023-05-01T11:11:50;53365.91;;;-145.32;63.80
14041;BME280;7095;51.388;6.196;2023-05-01T11:14:19;53336.09;;;-145.32;73.17
14041;BME280;7095;51.388;6.196;2023-05-01T11:16:47;53375.84;;;-145.32;75.15
14041;BME280;7095;51.388;6.196;2023-05-01T11:19:44;53357.94;;;-145.32;72.63
14041;BME280;7095;51.388;6.196;2023-05-01T11:22:15;53381.81;;;-145.32;74.74
14041;BME280;7095;51.388;6.196;2023-05-01T11:24:44;53379.81;;;-145.32;75.29
14041;BME280;7095;51.388;6.196;2023-05-01T11:27:16;53363.91;;;-145.32;74.97
14041;BME280;7095;51.388;6.196;2023-05-01T11:29:44;53348.00;;;-145.32;77.47
14041;BME280;7095;51.388;6.196;2023-05-01T11:32:17;53383.78;;;-145.32;79.49
14041;BME280;7095;51.388;6.196;2023-05-01T11:34:48;53383.78;;;-145.32;78.58
14041;BME280;7095;51.388;6.196;2023-05-01T11:37:17;53395.72;;;-145.32;80.58
14041;BME280;7095;51.388;6.196;2023-05-01T11:39:48;53365.91;;;-145.32;82.12
14041;BME280;7095;51.388;6.196;2023-05-01T11:42:21;53399.69;;;-145.32;84.38
14041;BME280;7095;51.388;6.196;2023-05-01T11:45:06;53385.78;;;-145.32;83.18
14041;BME280;7095;51.388;6.196;2023-05-01T11:47:37;53393.75;;;-145.32;86.26
14041;BME280;7095;51.388;6.196;2023-05-01T11:50:07;53389.75;;;-145.32;84.84
14041;BME280;7095;51.388;6.196;2023-05-01T11:52:43;53375.84;;;-145.32;83.35
14041;BME280;7095;51.388;6.196;2023-05-01T11:55:12;53387.78;;;-145.32;80.47
14041;BME280;7095;51.388;6.196;2023-05-01T11:57:50;53355.97;;;-145.32;76.54
14041;BME280;7095;51.388;6.196;2023-05-01T12:00:27;53357.94;;;-145.32;78.75
14041;BME280;7095;51.388;6.196;2023-05-01T12:03:02;53344.03;;;-145.32;70.24
14041;BME280;7095;51.388;6.196;2023-05-01T12:05:34;53359.94;;;-145.32;67.87
14041;BME280;7095;51.388;6.196;2023-05-01T12:08:12;53308.25;;;-145.32;60.24
14041;BME280;7095;51.388;6.196;2023-05-01T12:10:47;53304.28;;;-145.32;63.63
14041;BME280;7095;51.388;6.196;2023-05-01T12:13:18;53300.31;;;-145.32;58.66
14041;BME280;7095;51.388;6.196;2023-05-01T12:15:50;53286.38;;;-145.32;57.93
14041;BME280;7095;51.388;6.196;2023-05-01T12:18:20;53316.22;;;-145.32;58.32
14041;BME280;7095;51.388;6.196;2023-05-01T12:20:50;53268.50;;;-145.32;56.08
14041;BME280;7095;51.388;6.196;2023-05-01T12:23:29;53252.59;;;-145.32;49.01
14041;BME280;7095;51.388;6.196;2023-05-01T12:26:00;53248.63;;;-145.32;51.02
14041;BME280;7095;51.388;6.196;2023-05-01T12:28:32;53260.53;;;-145.32;49.97
14041;BME280;7095;51.388;6.196;2023-05-01T12:31:04;53212.84;;;-145.32;48.94
14041;BME280;7095;51.388;6.196;2023-05-01T12:33:33;53220.78;;;-145.32;47.16
14041;BME280;7095;51.388;6.196;2023-05-01T12:36:08;53240.66;;;-145.32;43.47
14041;BME280;7095;51.388;6.196;2023-05-01T12:38:38;53250.59;;;-145.32;45.22
14041;BME280;7095;51.388;6.196;2023-05-01T12:41:07;53224.75;;;-145.32;44.67
14041;BME280;7095;51.388;6.196;2023-05-01T12:43:42;53194.94;;;-145.32;43.88
14041;BME280;7095;51.388;6.196;2023-05-01T12:46:13;53216.81;;;-145.32;41.27
14041;BME280;7095;51.388;6.196;2023-05-01T12:48:43;53208.84;;;-145.32;43.53
14041;BME280;7095;51.388;6.196;2023-05-01T12:51:17;53204.88;;;-145.32;41.04
14041;BME280;7095;51.388;6.196;2023-05-01T12:53:46;53208.84;;;-145.32;41.22
14041;BME280;7095;51.388;6.196;2023-05-01T12:56:20;53242.66;;;-145.32;40.68
14041;BME280;7095;51.388;6.196;2023-05-01T12:58:51;53274.47;;;-145.32;40.38
14041;BME280;7095;51.388;6.196;2023-05-01T13:01:24;53258.56;;;-145.32;41.88
14041;BME280;7095;51.388;6.196;2023-05-01T13:03:54;53300.31;;;-145.32;41.08
14041;BME280;7095;51.388;6.196;2023-05-01T13:06:30;53292.34;;;-145.32;40.59
14041;BME280;7095;51.388;6.196;2023-05-01T13:09:10;53306.28;;;-145.32;40.60
14041;BME280;7095;51.388;6.196;2023-05-01T13:11:42;53344.03;;;-145.32;43.08
14041;BME280;7095;51.388;6.196;2023-05-01T13:14:12;53363.91;;;-145.32;43.61
14041;BME280;7095;51.388;6.196;2023-05-01T13:16:44;53401.69;;;-145.32;44.66